createdAt,value
2023-05-15T00:00:32.998Z,90.87
2023-05-15T00:02:59.549Z,91.16
2023-05-15T00:05:26.334Z,91.07
2023-05-15T00:07:55.385Z,91.17
2023-05-15T00:10:21.721Z,90.84
2023-05-15T00:12:48.107Z,91.51
2023-05-15T00:15:14.718Z,91.14
2023-05-15T00:17:41.191Z,90.35
2023-05-15T00:20:10.032Z,90.70
2023-05-15T00:22:36.651Z,90.94
2023-05-15T00:25:03.549Z,90.92
2023-05-15T00:27:30.127Z,90.18
2023-05-15T00:29:56.604Z,90.53
2023-05-15T00:32:23.113Z,91.22
2023-05-15T00:34:49.560Z,90.73
2023-05-15T00:37:16.197Z,90.10
2023-05-15T00:39:42.589Z,89.96
2023-05-15T00:42:09.493Z,90.14
2023-05-15T00:44:37.326Z,91.00
2023-05-15T00:47:04.965Z,90.55
2023-05-15T00:49:35.360Z,90.19
2023-05-15T00:52:03.689Z,91.02
2023-05-15T00:54:30.505Z,91.22
2023-05-15T00:57:00.333Z,89.58
2023-05-15T00:59:31.772Z,88.52
2023-05-15T01:01:58.329Z,88.72
2023-05-15T01:04:25.223Z,89.94
2023-05-15T01:06:55.064Z,89.05
2023-05-15T01:09:25.559Z,90.30
2023-05-15T01:11:54.879Z,91.07
2023-05-15T01:14:21.471Z,91.16
2023-05-15T01:16:47.931Z,90.07
2023-05-15T01:19:14.842Z,89.76
2023-05-15T01:22:11.873Z,89.42
2023-05-15T01:25:08.054Z,89.85
2023-05-15T01:27:43.682Z,89.99
2023-05-15T01:30:23.474Z,89.93
2023-05-15T01:33:03.201Z,90.07
2023-05-15T01:35:45.464Z,89.22
2023-05-15T01:38:17.748Z,89.57
2023-05-15T01:40:48.860Z,90.55
2023-05-15T01:43:22.189Z,90.65
2023-05-15T01:45:48.720Z,89.02
2023-05-15T01:48:19.403Z,88.87
2023-05-15T01:50:47.279Z,90.09
2023-05-15T01:53:15.022Z,90.24
2023-05-15T01:55:42.287Z,89.97
2023-05-15T01:58:09.816Z,89.54
2023-05-15T02:00:38.141Z,89.24
2023-05-15T02:03:10.698Z,90.32
2023-05-15T02:05:38.244Z,90.36
2023-05-15T02:08:05.812Z,90.60
2023-05-15T02:10:33.576Z,90.63
2023-05-15T02:13:02.987Z,89.97
2023-05-15T02:15:30.057Z,90.48
2023-05-15T02:17:59.174Z,89.99
2023-05-15T02:20:25.764Z,89.92
2023-05-15T02:22:52.190Z,90.63
2023-05-15T02:25:20.095Z,89.39
2023-05-15T02:27:56.056Z,90.00
2023-05-15T02:30:40.673Z,90.44
2023-05-15T02:33:35.982Z,90.51
2023-05-15T02:36:07.014Z,90.94
2023-05-15T02:38:43.293Z,90.71
2023-05-15T02:41:11.002Z,90.69
2023-05-15T02:43:39.569Z,91.17
2023-05-15T02:46:07.475Z,91.12
2023-05-15T02:48:40.125Z,91.05
2023-05-15T02:51:09.884Z,91.14
2023-05-15T02:53:44.681Z,91.35
2023-05-15T02:56:11.062Z,91.76
2023-05-15T02:58:41.191Z,92.21
2023-05-15T03:01:08.364Z,91.96
2023-05-15T03:03:34.825Z,92.12
2023-05-15T03:06:01.457Z,92.13
2023-05-15T03:08:28.467Z,92.37
2023-05-15T03:10:54.846Z,91.70
2023-05-15T03:13:23.476Z,91.67
2023-05-15T03:15:49.898Z,92.40
2023-05-15T03:18:18.809Z,91.79
2023-05-15T03:20:47.146Z,92.36
2023-05-15T03:23:13.554Z,92.33
2023-05-15T03:25:42.273Z,93.43
2023-05-15T03:28:08.785Z,92.95
2023-05-15T03:30:35.226Z,92.63
2023-05-15T03:33:03.857Z,93.01
2023-05-15T03:35:32.188Z,93.13
2023-05-15T03:38:01.339Z,93.06
2023-05-15T03:40:30.367Z,93.02
2023-05-15T03:42:56.703Z,92.56
2023-05-15T03:45:23.565Z,92.82
2023-05-15T03:47:50.344Z,92.36
2023-05-15T03:50:16.807Z,92.45
2023-05-15T03:52:43.403Z,92.21
2023-05-15T03:55:10.031Z,92.22
2023-05-15T03:57:36.573Z,91.83
2023-05-15T04:00:10.488Z,91.47
2023-05-15T04:02:37.761Z,92.32
2023-05-15T04:05:05.313Z,92.35
2023-05-15T04:07:33.576Z,92.22
2023-05-15T04:10:04.101Z,91.70
2023-05-15T04:12:33.367Z,92.01
2023-05-15T04:15:14.708Z,92.42
2023-05-15T04:17:44.116Z,92.40
2023-05-15T04:20:11.356Z,92.29
2023-05-15T04:22:37.878Z,92.49
2023-05-15T04:25:04.827Z,92.36
2023-05-15T04:27:33.880Z,92.54
2023-05-15T04:30:01.241Z,92.25
2023-05-15T04:32:27.832Z,91.71
2023-05-15T04:34:54.445Z,91.34
2023-05-15T04:37:20.987Z,90.45
2023-05-15T04:39:49.842Z,89.59
2023-05-15T04:42:16.297Z,89.22
2023-05-15T04:44:42.916Z,90.15
2023-05-15T04:47:09.257Z,90.08
2023-05-15T04:49:40.316Z,90.43
2023-05-15T04:52:06.897Z,89.02
2023-05-15T04:54:35.606Z,89.05
2023-05-15T04:57:04.307Z,89.88
2023-05-15T04:59:32.133Z,90.67
2023-05-15T05:01:58.591Z,90.75
2023-05-15T05:04:25.112Z,90.98
2023-05-15T05:06:53.906Z,90.88
2023-05-15T05:09:22.633Z,89.95
2023-05-15T05:11:49.022Z,89.25
2023-05-15T05:14:18.639Z,89.77
2023-05-15T05:16:45.547Z,89.19
2023-05-15T05:19:12.154Z,89.14
2023-05-15T05:21:41.111Z,89.20
2023-05-15T05:24:07.590Z,89.22
2023-05-15T05:26:33.971Z,88.82
2023-05-15T05:29:02.516Z,88.48
2023-05-15T05:31:29.036Z,87.36
2023-05-15T05:33:55.681Z,87.17
2023-05-15T05:36:22.176Z,87.83
2023-05-15T05:38:48.650Z,87.23
2023-05-15T05:41:17.643Z,86.57
2023-05-15T05:43:44.091Z,86.54
2023-05-15T05:46:10.505Z,83.47
2023-05-15T05:48:36.980Z,85.93
2023-05-15T05:51:03.851Z,84.93
2023-05-15T05:53:32.680Z,85.13
2023-05-15T05:55:59.058Z,83.80
2023-05-15T05:58:28.022Z,84.48
2023-05-15T06:00:54.730Z,83.62
2023-05-15T06:03:21.381Z,83.41
2023-05-15T06:05:48.673Z,83.62
2023-05-15T06:08:15.227Z,83.93
2023-05-15T06:10:42.383Z,81.87
2023-05-15T06:13:08.933Z,84.17
2023-05-15T06:15:35.475Z,83.24
2023-05-15T06:18:04.315Z,82.89
2023-05-15T06:20:30.825Z,81.75
2023-05-15T06:22:57.174Z,78.15
2023-05-15T06:25:23.768Z,77.19
2023-05-15T06:27:50.302Z,80.18
2023-05-15T06:30:16.866Z,80.02
2023-05-15T06:32:43.511Z,80.02
2023-05-15T06:35:10.777Z,75.14
2023-05-15T06:37:39.752Z,74.33
2023-05-15T06:40:06.863Z,73.40
2023-05-15T06:42:33.458Z,72.34
2023-05-15T06:45:00.726Z,73.45
2023-05-15T06:47:27.289Z,73.13
2023-05-15T06:49:55.446Z,73.93
2023-05-15T06:52:21.945Z,75.15
2023-05-15T06:54:48.519Z,72.55
2023-05-15T06:57:15.539Z,78.05
2023-05-15T06:59:42.066Z,73.46
2023-05-15T07:02:11.122Z,72.28
2023-05-15T07:04:37.686Z,75.63
2023-05-15T07:07:07.064Z,71.19
2023-05-15T07:09:33.679Z,69.85
2023-05-15T07:12:00.152Z,69.29
2023-05-15T07:14:26.520Z,66.84
2023-05-15T07:16:55.313Z,71.09
2023-05-15T07:19:21.822Z,68.04
2023-05-15T07:21:48.361Z,68.74
2023-05-15T07:24:14.736Z,68.14
2023-05-15T07:26:50.608Z,69.91
2023-05-15T07:29:23.731Z,69.72
2023-05-15T07:31:50.327Z,70.01
2023-05-15T07:34:16.763Z,69.05
2023-05-15T07:36:45.818Z,67.91
2023-05-15T07:39:12.342Z,67.91
2023-05-15T07:41:43.957Z,71.26
2023-05-15T07:44:10.590Z,68.70
2023-05-15T07:46:38.829Z,68.48
2023-05-15T07:49:05.299Z,70.42
2023-05-15T07:51:32.003Z,68.46
2023-05-15T07:53:58.376Z,68.54
2023-05-15T07:56:25.272Z,70.68
2023-05-15T07:58:51.668Z,68.75
2023-05-15T08:01:18.144Z,68.10
2023-05-15T08:03:44.627Z,66.83
2023-05-15T08:06:16.169Z,70.28
2023-05-15T08:08:42.678Z,70.07
2023-05-15T08:11:09.098Z,71.35
2023-05-15T08:13:37.927Z,71.08
2023-05-15T08:16:04.784Z,64.98
2023-05-15T08:18:31.348Z,68.41
2023-05-15T08:20:57.919Z,64.37
2023-05-15T08:23:26.943Z,65.64
2023-05-15T08:25:55.741Z,63.83
2023-05-15T08:28:22.091Z,65.16
2023-05-15T08:30:48.840Z,63.37
2023-05-15T08:33:19.165Z,65.64
2023-05-15T08:35:48.149Z,69.54
2023-05-15T08:38:17.129Z,67.84
2023-05-15T08:40:47.435Z,65.67
2023-05-15T08:43:17.927Z,63.87
2023-05-15T08:45:44.435Z,58.83
2023-05-15T08:48:14.265Z,61.92
2023-05-15T08:50:41.853Z,62.22
2023-05-15T08:53:08.474Z,59.31
2023-05-15T08:55:35.284Z,62.96
2023-05-15T08:58:02.489Z,64.11
2023-05-15T09:00:29.122Z,58.12
2023-05-15T09:02:58.934Z,58.11
2023-05-15T09:05:26.242Z,59.81
2023-05-15T09:07:54.646Z,60.57
2023-05-15T09:10:22.314Z,60.35
2023-05-15T09:12:51.442Z,61.82
2023-05-15T09:15:22.446Z,58.90
2023-05-15T09:17:52.233Z,62.23
2023-05-15T09:20:30.002Z,56.96
2023-05-15T09:22:57.478Z,62.20
2023-05-15T09:25:41.567Z,59.29
2023-05-15T09:28:25.493Z,59.39
2023-05-15T09:31:00.816Z,57.46
2023-05-15T09:33:30.384Z,56.40
2023-05-15T09:35:56.852Z,55.67
2023-05-15T09:38:23.356Z,60.48
2023-05-15T09:41:00.838Z,53.25
2023-05-15T09:43:35.781Z,57.18
2023-05-15T09:46:02.288Z,54.33
2023-05-15T09:48:30.595Z,56.36
2023-05-15T09:50:57.783Z,55.75
2023-05-15T09:53:24.903Z,51.85
2023-05-15T09:55:53.399Z,52.11
2023-05-15T09:58:20.038Z,51.21
2023-05-15T10:00:49.766Z,50.97
2023-05-15T10:03:19.778Z,53.17
2023-05-15T10:05:48.706Z,53.08
2023-05-15T10:08:26.076Z,53.27
2023-05-15T10:10:54.197Z,50.50
2023-05-15T10:13:22.671Z,53.59
2023-05-15T10:15:50.372Z,50.71
2023-05-15T10:18:21.720Z,49.76
2023-05-15T10:20:52.369Z,50.89
2023-05-15T10:23:20.599Z,52.46
2023-05-15T10:26:03.101Z,51.56
2023-05-15T10:28:33.426Z,52.96
2023-05-15T10:31:05.499Z,55.09
2023-05-15T10:33:32.662Z,50.20
2023-05-15T10:36:03.229Z,50.70
2023-05-15T10:38:32.493Z,51.61
2023-05-15T10:41:15.690Z,49.47
2023-05-15T10:43:44.048Z,52.32
2023-05-15T10:46:13.715Z,53.36
2023-05-15T10:48:40.514Z,52.02
2023-05-15T10:51:14.934Z,52.85
2023-05-15T10:53:41.636Z,52.63
2023-05-15T10:56:16.599Z,51.45
2023-05-15T10:58:51.064Z,47.40
2023-05-15T11:01:27.943Z,45.63
2023-05-15T11:04:14.049Z,43.41
2023-05-15T11:06:45.392Z,43.49
2023-05-15T11:09:29.902Z,46.51
2023-05-15T11:12:01.262Z,46.06
2023-05-15T11:14:29.509Z,46.65
2023-05-15T11:16:57.571Z,43.88
2023-05-15T11:19:32.896Z,44.50
2023-05-15T11:22:25.691Z,43.50
2023-05-15T11:25:09.171Z,45.09
2023-05-15T11:27:44.873Z,47.06
2023-05-15T11:30:15.026Z,45.42
2023-05-15T11:32:45.449Z,42.81
2023-05-15T11:35:32.619Z,41.77
2023-05-15T11:38:03.620Z,42.31
2023-05-15T11:40:32.623Z,45.24
2023-05-15T11:43:07.728Z,44.42
2023-05-15T11:45:39.566Z,46.33
2023-05-15T11:48:08.561Z,46.76
2023-05-15T11:50:37.971Z,44.55
2023-05-15T11:53:09.357Z,46.41
2023-05-15T11:55:38.067Z,43.35
2023-05-15T11:58:05.996Z,45.89
2023-05-15T12:00:32.533Z,46.16
2023-05-15T12:02:59.104Z,41.89
2023-05-15T12:05:25.588Z,42.73
2023-05-15T12:07:52.553Z,40.85
2023-05-15T12:10:21.376Z,38.67
2023-05-15T12:12:49.760Z,39.20
2023-05-15T12:15:18.580Z,39.09
2023-05-15T12:17:46.312Z,38.67
2023-05-15T12:20:17.724Z,39.09
2023-05-15T12:22:45.053Z,40.25
2023-05-15T12:25:15.794Z,40.16
2023-05-15T12:27:42.414Z,40.48
2023-05-15T12:30:11.015Z,40.43
2023-05-15T12:32:38.889Z,39.69
2023-05-15T12:35:05.990Z,41.76
2023-05-15T12:37:33.764Z,40.57
2023-05-15T12:40:07.420Z,41.56
2023-05-15T12:42:42.040Z,40.13
2023-05-15T12:45:18.772Z,39.29
2023-05-15T12:47:47.668Z,37.60
2023-05-15T12:50:14.783Z,38.45
2023-05-15T12:52:46.571Z,35.43
2023-05-15T12:55:26.852Z,36.96
2023-05-15T12:57:56.253Z,38.39
2023-05-15T13:00:22.734Z,40.16
2023-05-15T13:02:56.918Z,38.96
2023-05-15T13:05:27.070Z,40.90
2023-05-15T13:07:53.492Z,43.62
2023-05-15T13:10:24.993Z,44.25
2023-05-15T13:12:56.368Z,45.57
2023-05-15T13:15:28.834Z,43.87
2023-05-15T13:18:02.462Z,44.09
2023-05-15T13:20:32.413Z,44.33
2023-05-15T13:22:58.799Z,45.16
2023-05-15T13:25:25.637Z,45.52
2023-05-15T13:27:52.319Z,47.33
2023-05-15T13:30:19.284Z,46.82
2023-05-15T13:32:45.982Z,47.83
2023-05-15T13:35:12.389Z,46.38
2023-05-15T13:37:41.115Z,46.31
2023-05-15T13:40:12.241Z,47.54
2023-05-15T13:42:40.483Z,46.65
2023-05-15T13:45:09.307Z,47.08
2023-05-15T13:47:42.066Z,47.62
2023-05-15T13:50:10.455Z,46.84
2023-05-15T13:52:37.782Z,45.23
2023-05-15T13:55:04.892Z,43.49
2023-05-15T13:57:33.662Z,43.58
2023-05-15T14:00:04.824Z,44.18
2023-05-15T14:02:31.503Z,44.63
2023-05-15T14:04:57.895Z,45.03
2023-05-15T14:07:24.420Z,44.79
2023-05-15T14:09:52.032Z,45.75
2023-05-15T14:12:22.050Z,45.33
2023-05-15T14:14:48.852Z,44.95
2023-05-15T14:17:15.856Z,45.43
2023-05-15T14:19:43.142Z,45.76
2023-05-15T14:22:10.290Z,44.61
2023-05-15T14:24:36.917Z,44.99
2023-05-15T14:27:03.488Z,42.91
2023-05-15T14:29:32.013Z,42.29
2023-05-15T14:31:58.450Z,42.05
2023-05-15T14:34:27.172Z,41.99
2023-05-15T14:36:53.571Z,42.72
2023-05-15T14:39:20.062Z,41.61
2023-05-15T14:41:47.207Z,40.20
2023-05-15T14:44:15.803Z,39.57
2023-05-15T14:46:45.411Z,39.91
2023-05-15T14:49:11.970Z,40.20
2023-05-15T14:51:38.315Z,39.61
2023-05-15T14:54:05.164Z,39.77
2023-05-15T14:56:36.332Z,41.46
2023-05-15T14:59:02.780Z,41.85
2023-05-15T15:01:34.174Z,41.59
2023-05-15T15:04:00.823Z,42.28
2023-05-15T15:06:27.245Z,42.26
2023-05-15T15:08:53.743Z,42.51
2023-05-15T15:11:20.259Z,44.88
2023-05-15T15:13:46.786Z,44.14
2023-05-15T15:16:13.394Z,44.20
2023-05-15T15:18:40.075Z,44.13
2023-05-15T15:21:06.498Z,46.37
2023-05-15T15:23:33.230Z,45.83
2023-05-15T15:25:59.713Z,45.59
2023-05-15T15:28:26.466Z,46.15
2023-05-15T15:30:53.045Z,46.31
2023-05-15T15:33:19.407Z,46.30
2023-05-15T15:35:46.079Z,46.62
2023-05-15T15:38:13.303Z,47.56
2023-05-15T15:40:40.594Z,47.11
2023-05-15T15:43:06.979Z,46.79
2023-05-15T15:45:33.422Z,46.04
2023-05-15T15:47:59.964Z,46.57
2023-05-15T15:50:26.784Z,46.90
2023-05-15T15:52:56.360Z,47.27
2023-05-15T15:55:22.919Z,46.91
2023-05-15T15:57:49.438Z,47.87
2023-05-15T16:00:16.335Z,48.16
2023-05-15T16:02:42.877Z,47.57
2023-05-15T16:05:12.069Z,47.44
2023-05-15T16:07:38.636Z,50.21
2023-05-15T16:10:12.352Z,49.91
2023-05-15T16:12:40.832Z,51.55
2023-05-15T16:15:21.774Z,53.76
2023-05-15T16:17:54.331Z,55.65
2023-05-15T16:20:21.854Z,57.88
2023-05-15T16:22:50.672Z,60.00
2023-05-15T16:25:17.091Z,61.14
2023-05-15T16:27:43.586Z,61.23
2023-05-15T16:30:11.510Z,61.66
2023-05-15T16:32:38.112Z,63.53
2023-05-15T16:35:05.226Z,64.62
2023-05-15T16:37:32.305Z,62.78
2023-05-15T16:40:03.976Z,64.75
2023-05-15T16:42:35.635Z,64.75
2023-05-15T16:45:02.315Z,64.52
2023-05-15T16:47:28.728Z,65.41
2023-05-15T16:49:55.104Z,65.13
2023-05-15T16:52:22.217Z,66.31
2023-05-15T16:54:48.722Z,66.44
2023-05-15T16:57:15.575Z,66.64
2023-05-15T16:59:41.931Z,66.79
2023-05-15T17:02:11.013Z,67.69
2023-05-15T17:04:37.625Z,67.72
2023-05-15T17:07:06.033Z,66.83
2023-05-15T17:09:32.855Z,69.03
2023-05-15T17:11:59.654Z,68.33
2023-05-15T17:14:26.784Z,68.35
2023-05-15T17:16:53.260Z,68.48
2023-05-15T17:19:19.654Z,68.84
2023-05-15T17:21:46.279Z,69.13
2023-05-15T17:24:15.864Z,68.94
2023-05-15T17:26:42.201Z,70.77
2023-05-15T17:29:08.581Z,70.05
2023-05-15T17:31:36.898Z,70.09
2023-05-15T17:34:03.375Z,70.55
2023-05-15T17:36:29.854Z,70.15
2023-05-15T17:38:56.357Z,70.63
2023-05-15T17:41:24.869Z,70.35
2023-05-15T17:43:51.520Z,70.82
2023-05-15T17:46:18.419Z,70.81
2023-05-15T17:48:44.828Z,70.69
2023-05-15T17:51:13.838Z,70.45
2023-05-15T17:53:40.349Z,71.19
2023-05-15T17:56:07.139Z,70.56
2023-05-15T17:58:33.727Z,71.20
2023-05-15T18:01:01.140Z,71.37
2023-05-15T18:03:30.348Z,71.52
2023-05-15T18:05:56.974Z,71.32
2023-05-15T18:08:23.416Z,71.66
2023-05-15T18:10:49.757Z,72.30
2023-05-15T18:13:16.404Z,73.53
2023-05-15T18:15:43.233Z,72.42
2023-05-15T18:18:09.799Z,71.95
2023-05-15T18:20:36.381Z,72.50
2023-05-15T18:23:02.907Z,72.63
2023-05-15T18:25:29.304Z,73.60
2023-05-15T18:27:55.647Z,74.59
2023-05-15T18:30:26.676Z,73.89
2023-05-15T18:32:53.318Z,74.54
2023-05-15T18:35:19.964Z,74.88
2023-05-15T18:37:46.417Z,74.75
2023-05-15T18:40:13.004Z,74.52
2023-05-15T18:42:39.505Z,74.93
2023-05-15T18:45:06.845Z,74.83
2023-05-15T18:47:33.324Z,74.89
2023-05-15T18:49:59.760Z,76.27
2023-05-15T18:52:26.942Z,76.24
2023-05-15T18:54:54.215Z,78.03
2023-05-15T18:57:20.975Z,77.71
2023-05-15T18:59:48.210Z,77.41
2023-05-15T19:02:14.837Z,77.92
2023-05-15T19:04:44.513Z,77.62
2023-05-15T19:07:11.192Z,78.81
2023-05-15T19:09:37.616Z,79.18
2023-05-15T19:12:13.164Z,79.01
2023-05-15T19:14:40.384Z,79.65
2023-05-15T19:17:07.210Z,79.59
2023-05-15T19:19:34.372Z,80.41
2023-05-15T19:22:03.539Z,80.50
2023-05-15T19:24:32.700Z,81.10
2023-05-15T19:27:02.323Z,81.24
2023-05-15T19:29:31.110Z,80.96
2023-05-15T19:31:58.136Z,81.34
2023-05-15T19:34:24.544Z,81.39
2023-05-15T19:36:50.988Z,82.52
2023-05-15T19:39:17.386Z,82.29
2023-05-15T19:41:44.087Z,82.28
2023-05-15T19:44:11.231Z,82.10
2023-05-15T19:46:41.818Z,81.80
2023-05-15T19:49:09.155Z,81.34
2023-05-15T19:51:35.959Z,82.11
2023-05-15T19:54:04.851Z,82.58
2023-05-15T19:56:31.416Z,82.12
2023-05-15T19:58:58.031Z,81.72
2023-05-15T20:01:24.478Z,82.21
2023-05-15T20:03:51.600Z,82.27
2023-05-15T20:06:18.430Z,82.07
2023-05-15T20:08:45.617Z,82.57
2023-05-15T20:11:12.058Z,82.56
2023-05-15T20:13:39.120Z,82.12
2023-05-15T20:16:10.829Z,82.52
2023-05-15T20:18:40.378Z,82.03
2023-05-15T20:21:09.343Z,82.64
2023-05-15T20:23:35.717Z,81.07
2023-05-15T20:26:03.420Z,80.36
2023-05-15T20:28:30.262Z,79.66
2023-05-15T20:30:57.275Z,79.49
2023-05-15T20:33:23.961Z,79.60
2023-05-15T20:35:51.478Z,79.55
2023-05-15T20:38:17.955Z,78.96
2023-05-15T20:40:44.704Z,78.50
2023-05-15T20:43:11.527Z,78.70
2023-05-15T20:45:41.048Z,78.87
2023-05-15T20:48:08.685Z,79.29
2023-05-15T20:50:35.286Z,79.31
2023-05-15T20:53:01.847Z,79.54
2023-05-15T20:55:28.358Z,79.25
2023-05-15T20:57:57.224Z,80.83
2023-05-15T21:00:24.258Z,79.37
2023-05-15T21:02:51.540Z,79.48
2023-05-15T21:05:18.196Z,79.33
2023-05-15T21:07:44.614Z,81.11
2023-05-15T21:10:11.516Z,80.20
2023-05-15T21:12:37.927Z,79.78
2023-05-15T21:15:05.657Z,80.52
2023-05-15T21:17:32.237Z,82.88
2023-05-15T21:19:58.886Z,81.86
2023-05-15T21:22:25.714Z,82.62
2023-05-15T21:24:52.205Z,82.88
2023-05-15T21:27:18.665Z,83.41
2023-05-15T21:29:45.220Z,84.03
2023-05-15T21:32:11.702Z,83.97
2023-05-15T21:34:38.904Z,83.75
2023-05-15T21:37:07.666Z,82.69
2023-05-15T21:39:34.155Z,83.06
2023-05-15T21:42:00.690Z,82.96
2023-05-15T21:44:27.099Z,83.49
2023-05-15T21:46:53.625Z,83.81
2023-05-15T21:49:20.122Z,83.52
2023-05-15T21:51:46.687Z,84.74
2023-05-15T21:54:15.857Z,84.14
2023-05-15T21:56:42.185Z,85.20
2023-05-15T21:59:10.365Z,85.10
2023-05-15T22:01:36.818Z,84.43
2023-05-15T22:04:04.099Z,85.36
2023-05-15T22:06:31.049Z,85.19
2023-05-15T22:08:57.668Z,84.49
2023-05-15T22:11:26.605Z,85.21
2023-05-15T22:13:52.977Z,85.34
2023-05-15T22:16:19.532Z,84.99
2023-05-15T22:18:47.578Z,84.85
2023-05-15T22:21:14.861Z,84.13
2023-05-15T22:23:43.579Z,83.95
2023-05-15T22:26:09.992Z,83.29
2023-05-15T22:28:38.709Z,83.01
2023-05-15T22:31:05.432Z,82.85
2023-05-15T22:33:34.028Z,82.91
2023-05-15T22:36:00.440Z,83.06
2023-05-15T22:38:29.282Z,82.88
2023-05-15T22:40:55.727Z,82.86
2023-05-15T22:43:22.412Z,82.61
2023-05-15T22:45:49.269Z,82.62
2023-05-15T22:48:18.487Z,81.62
2023-05-15T22:50:44.915Z,82.19
2023-05-15T22:53:11.553Z,82.40
2023-05-15T22:55:40.754Z,82.05
2023-05-15T22:58:07.165Z,81.79
2023-05-15T23:00:34.031Z,81.89
2023-05-15T23:03:00.716Z,82.40
2023-05-15T23:05:27.797Z,81.87
2023-05-15T23:07:54.198Z,82.39
2023-05-15T23:10:21.027Z,81.87
2023-05-15T23:12:47.472Z,81.58
2023-05-15T23:15:13.918Z,81.12
2023-05-15T23:17:40.447Z,81.00
2023-05-15T23:20:08.921Z,81.18
2023-05-15T23:22:35.286Z,79.49
2023-05-15T23:25:01.721Z,78.81
2023-05-15T23:27:28.236Z,77.14
2023-05-15T23:29:56.987Z,75.17
2023-05-15T23:32:23.518Z,75.03
2023-05-15T23:34:50.728Z,73.83
2023-05-15T23:37:17.130Z,73.84
2023-05-15T23:39:43.462Z,73.11
2023-05-15T23:42:11.692Z,73.02
2023-05-15T23:44:38.496Z,72.45
2023-05-15T23:47:05.182Z,72.88
2023-05-15T23:49:35.268Z,72.37
2023-05-15T23:52:01.757Z,72.38
2023-05-15T23:54:28.171Z,71.76
2023-05-15T23:56:54.879Z,72.04
2023-05-15T23:59:21.413Z,72.37
